This is the latest recevied weather packets stored in our database for station/object CW2401. If no packets are shown the sender has not sent any weather packets the latest 10 day(s).
| Time | Temp. | Humidity | Pressure | Rain* | Wind** | Luminosity | Snow |
|---|---|---|---|---|---|---|---|
| 1777470309 | 16.11° C | 92% | 1014.7 hPa | 0 mm | - | - | - |
| 1777470068 | 16.11° C | 93% | 1014.5 hPa | 0 mm | - | - | - |
| 1777469829 | 16.11° C | 93% | 1014.6 hPa | 0 mm | - | - | - |
| 1777469588 | 16.11° C | 93% | 1014.6 hPa | 0 mm | - | - | - |
| 1777468141 | 15.56° C | 94% | 1015.1 hPa | 0 mm | - | - | - |
| 1777468018 | 15.56° C | 94% | 1015.1 hPa | 0 mm | - | - | - |
| 1777467773 | 15° C | 94% | 1015.2 hPa | 0 mm | - | - | - |
| 1777466931 | 14.44° C | 94% | 1015.5 hPa | 0 mm | - | - | - |
| 1777465968 | 14.44° C | 94% | 1015.4 hPa | 0 mm | - | - | - |
| 1777465846 | 14.44° C | 94% | 1015.5 hPa | 0 mm | - | - | - |
| 1777465002 | 13.89° C | 94% | 1015.6 hPa | 0 mm | - | - | - |
| 1777464517 | 13.33° C | 94% | 1015.6 hPa | 0 mm | - | - | - |
| 1777464274 | 13.33° C | 94% | 1015.7 hPa | 0 mm | - | - | - |
| 1777463063 | 12.78° C | 94% | 1015.9 hPa | 0 mm | - | - | - |
| 1777462945 | 12.78° C | 94% | 1016.1 hPa | 0 mm | - | - | - |
| 1777462097 | 12.78° C | 94% | 1016.3 hPa | 0 mm | - | - | - |
| 1777461377 | 12.22° C | 93% | 1016.2 hPa | 0 mm | - | - | - |
| 1777461255 | 12.22° C | 93% | 1016.2 hPa | 0 mm | - | - | - |
| 1777461135 | 12.22° C | 93% | 1016.2 hPa | 0 mm | - | - | - |
| 1777460649 | 12.22° C | 93% | 1015.9 hPa | 0 mm | - | - | - |
| 1777457993 | 12.78° C | 93% | 1015.1 hPa | 0 mm | - | - | - |
| 1777457750 | 12.78° C | 93% | 1015.2 hPa | 0 mm | - | - | - |
| 1777457505 | 12.78° C | 93% | 1015.2 hPa | 0 mm | - | - | - |
| 1777457385 | 12.78° C | 93% | 1015.2 hPa | 0 mm | - | - | - |
| 1777457020 | 12.78° C | 93% | 1015.3 hPa | 0 mm | - | - | - |
* Rain latest hour (hover to see other rain measurements)
** Current wind speed in m/s (hover to see current wind gust speed)